Time;durP1;ratioP1;P1;durP2;ratioP2;P2;SDS_P1;SDS_P2;PMS_P1;PMS_P2;Temp;Humidity;BMP_temperature;BMP_pressure;BME280_temperature;BME280_humidity;BME280_pressure;Samples;Min_cycle;Max_cycle;Signal;HPM_P1;HPM_P2
2022/12/09 00:00:01;;;;;;;33.97;19.63;;;;;;;;;;5048177;28;20413;-84
2022/12/09 00:02:28;;;;;;;32.75;20.20;;;;;;;;;;5048959;28;20414;-84
2022/12/09 00:04:55;;;;;;;30.87;20.00;;;;;;;;;;5050681;28;20413;-84
2022/12/09 00:07:21;;;;;;;29.50;19.25;;;;;;;;;;5046338;28;20410;-84
2022/12/09 00:09:47;;;;;;;33.63;20.55;;;;;;;;;;5049518;28;20493;-84
2022/12/09 00:12:15;;;;;;;27.83;19.40;;;;;;;;;;5053329;28;20429;-84
2022/12/09 00:14:41;;;;;;;31.10;20.25;;;;;;;;;;5054429;28;20413;-84
2022/12/09 00:17:08;;;;;;;32.70;19.40;;;;;;;;;;5046608;28;20500;-84
2022/12/09 00:19:34;;;;;;;28.45;18.98;;;;;;;;;;5045776;28;20429;-84
2022/12/09 00:22:00;;;;;;;28.40;18.70;;;;;;;;;;5046878;28;20444;-84
2022/12/09 00:24:27;;;;;;;27.63;18.90;;;;;;;;;;5044728;28;20433;-84
2022/12/09 00:26:53;;;;;;;30.85;18.92;;;;;;;;;;5046754;28;20442;-84
2022/12/09 00:29:21;;;;;;;29.10;18.67;;;;;;;;;;5047410;28;20428;-84
2022/12/09 00:31:47;;;;;;;28.52;18.50;;;;;;;;;;5045969;28;20426;-84
2022/12/09 00:34:14;;;;;;;25.98;18.17;;;;;;;;;;5045831;28;20409;-84
2022/12/09 00:36:40;;;;;;;31.27;19.38;;;;;;;;;;5049966;28;20425;-84
2022/12/09 00:39:06;;;;;;;28.13;18.02;;;;;;;;;;5046918;28;20419;-84
2022/12/09 00:41:33;;;;;;;30.58;18.50;;;;;;;;;;5046698;28;20417;-84
2022/12/09 00:43:59;;;;;;;28.40;19.20;;;;;;;;;;5047949;28;20425;-84
2022/12/09 00:46:27;;;;;;;25.13;17.67;;;;;;;;;;5047460;28;20440;-84
2022/12/09 00:48:53;;;;;;;26.98;17.50;;;;;;;;;;5043825;28;20453;-84
2022/12/09 00:51:21;;;;;;;26.27;17.50;;;;;;;;;;5048506;28;21019;-84
2022/12/09 00:53:47;;;;;;;28.85;18.98;;;;;;;;;;5048812;28;20417;-84
2022/12/09 00:56:13;;;;;;;28.75;17.80;;;;;;;;;;5049603;28;21269;-84
2022/12/09 00:58:40;;;;;;;25.67;16.60;;;;;;;;;;5050625;28;20414;-84
2022/12/09 01:01:06;;;;;;;26.15;17.08;;;;;;;;;;5047133;28;20413;-84
2022/12/09 01:03:34;;;;;;;29.73;17.42;;;;;;;;;;5044107;28;20419;-84
2022/12/09 01:06:00;;;;;;;26.42;17.70;;;;;;;;;;5045781;28;20809;-84
2022/12/09 01:08:26;;;;;;;24.45;16.90;;;;;;;;;;5052093;28;20777;-84
2022/12/09 01:10:53;;;;;;;27.15;17.13;;;;;;;;;;5052804;28;20482;-84
2022/12/09 01:13:19;;;;;;;25.38;17.05;;;;;;;;;;5047122;28;20414;-84
2022/12/09 01:15:45;;;;;;;23.67;15.85;;;;;;;;;;5053321;28;20427;-84
2022/12/09 01:18:12;;;;;;;26.73;16.42;;;;;;;;;;5048707;28;20410;-85
2022/12/09 01:20:40;;;;;;;21.42;15.63;;;;;;;;;;5041878;28;20446;-84
2022/12/09 01:23:06;;;;;;;23.95;15.88;;;;;;;;;;5046969;28;20423;-84
2022/12/09 01:25:33;;;;;;;24.50;16.10;;;;;;;;;;5052374;28;20425;-84
2022/12/09 01:27:59;;;;;;;24.60;15.60;;;;;;;;;;5046695;28;20411;-84
2022/12/09 01:30:25;;;;;;;23.35;14.85;;;;;;;;;;5052195;28;20443;-84
2022/12/09 01:32:52;;;;;;;21.83;14.82;;;;;;;;;;5051419;28;20424;-84
2022/12/09 01:35:18;;;;;;;20.80;14.67;;;;;;;;;;5047861;28;20499;-84
2022/12/09 01:37:46;;;;;;;21.55;15.02;;;;;;;;;;5047760;28;20414;-84
2022/12/09 01:40:15;;;;;;;24.45;15.00;;;;;;;;;;5051866;28;20901;-84
2022/12/09 01:42:42;;;;;;;22.70;14.70;;;;;;;;;;5050891;28;20413;-84
2022/12/09 01:45:36;;;;;;;23.83;15.10;;;;;;;;;;5048374;28;20423;-84
2022/12/09 01:48:10;;;;;;;25.58;16.23;;;;;;;;;;5050611;28;20442;-84
2022/12/09 01:50:38;;;;;;;21.93;15.17;;;;;;;;;;5048479;28;20846;-84
2022/12/09 01:53:06;;;;;;;23.15;15.20;;;;;;;;;;5048951;28;20417;-84
2022/12/09 01:55:34;;;;;;;23.48;15.35;;;;;;;;;;5046845;28;20431;-84
2022/12/09 01:58:00;;;;;;;27.43;15.30;;;;;;;;;;5048059;28;20490;-84
2022/12/09 02:00:27;;;;;;;24.25;15.20;;;;;;;;;;5049124;28;20432;-84
2022/12/09 02:02:54;;;;;;;22.85;15.30;;;;;;;;;;5049434;28;20955;-84
2022/12/09 02:05:23;;;;;;;22.40;14.55;;;;;;;;;;5055331;28;20920;-84
2022/12/09 02:07:49;;;;;;;22.17;15.52;;;;;;;;;;5054068;28;20485;-84
2022/12/09 02:10:17;;;;;;;23.23;15.57;;;;;;;;;;5039956;28;20415;-84
2022/12/09 02:12:50;;;;;;;24.85;15.43;;;;;;;;;;5049744;28;20415;-85
2022/12/09 02:15:21;;;;;;;24.10;15.00;;;;;;;;;;5049446;28;20427;-84
2022/12/09 02:17:50;;;;;;;25.15;14.55;;;;;;;;;;5051044;28;20424;-84
2022/12/09 02:20:19;;;;;;;23.02;14.13;;;;;;;;;;5049759;28;20423;-84
2022/12/09 02:22:47;;;;;;;26.45;15.63;;;;;;;;;;5047888;28;20415;-84
2022/12/09 02:25:17;;;;;;;23.80;15.00;;;;;;;;;;5045829;28;20453;-84
2022/12/09 02:27:47;;;;;;;22.60;14.32;;;;;;;;;;5049720;28;20427;-84
2022/12/09 02:30:15;;;;;;;25.70;15.20;;;;;;;;;;5052542;28;20401;-84
2022/12/09 02:33:01;;;;;;;29.77;18.50;;;;;;;;;;5047626;28;20412;-84
2022/12/09 02:35:35;;;;;;;29.43;18.30;;;;;;;;;;5050445;28;20517;-84
2022/12/09 02:38:05;;;;;;;26.80;18.40;;;;;;;;;;5053103;28;20420;-84
2022/12/09 02:40:33;;;;;;;33.50;19.33;;;;;;;;;;5045802;28;20492;-84
2022/12/09 02:43:02;;;;;;;34.97;21.33;;;;;;;;;;5051209;28;20418;-85
2022/12/09 02:45:30;;;;;;;32.70;19.53;;;;;;;;;;5054019;28;20429;-84
2022/12/09 02:47:59;;;;;;;31.63;19.08;;;;;;;;;;5045864;28;20422;-84
2022/12/09 02:50:28;;;;;;;31.38;19.60;;;;;;;;;;5048278;28;20429;-84
2022/12/09 02:52:58;;;;;;;36.73;21.37;;;;;;;;;;5048300;28;20446;-84
2022/12/09 02:55:25;;;;;;;41.17;24.17;;;;;;;;;;5049434;28;20434;-84
2022/12/09 02:57:53;;;;;;;37.13;23.00;;;;;;;;;;5049688;28;20417;-84
2022/12/09 03:00:20;;;;;;;46.60;26.05;;;;;;;;;;5052810;28;20425;-84
2022/12/09 03:02:48;;;;;;;44.03;25.33;;;;;;;;;;5050184;28;20423;-84
2022/12/09 03:05:20;;;;;;;38.63;23.90;;;;;;;;;;5043869;28;20454;-84
2022/12/09 03:07:51;;;;;;;44.55;23.98;;;;;;;;;;5045401;28;20415;-84
2022/12/09 03:10:23;;;;;;;47.55;24.70;;;;;;;;;;5046934;28;20809;-84
2022/12/09 03:12:51;;;;;;;41.53;24.60;;;;;;;;;;5048358;28;20785;-84
2022/12/09 03:15:20;;;;;;;41.63;24.70;;;;;;;;;;5050596;28;20419;-84
2022/12/09 03:17:47;;;;;;;39.10;24.15;;;;;;;;;;5046966;28;20406;-84
2022/12/09 03:20:15;;;;;;;44.50;24.50;;;;;;;;;;5049005;28;20429;-84
2022/12/09 03:22:43;;;;;;;48.05;26.70;;;;;;;;;;5046569;28;20438;-84
2022/12/09 03:25:12;;;;;;;48.78;25.40;;;;;;;;;;5050571;28;20788;-84
2022/12/09 03:27:42;;;;;;;42.90;25.55;;;;;;;;;;5045903;28;20475;-84
2022/12/09 03:30:09;;;;;;;42.33;24.67;;;;;;;;;;5049650;28;20426;-84
2022/12/09 03:32:37;;;;;;;43.75;24.42;;;;;;;;;;5047786;28;20440;-84
2022/12/09 03:35:07;;;;;;;39.83;24.60;;;;;;;;;;5050060;28;20422;-84
2022/12/09 03:37:34;;;;;;;44.75;24.95;;;;;;;;;;5051280;28;20410;-84
2022/12/09 03:40:01;;;;;;;40.73;23.80;;;;;;;;;;5050802;28;20423;-84
2022/12/09 03:42:29;;;;;;;39.15;23.38;;;;;;;;;;5048987;28;20935;-84
2022/12/09 03:44:59;;;;;;;41.88;24.58;;;;;;;;;;5052489;28;20409;-84
2022/12/09 03:47:26;;;;;;;42.58;25.20;;;;;;;;;;5046658;28;20415;-84
2022/12/09 03:49:52;;;;;;;38.72;23.42;;;;;;;;;;5049823;28;20457;-84
2022/12/09 03:52:20;;;;;;;38.92;23.15;;;;;;;;;;5050004;28;20411;-84
2022/12/09 03:54:48;;;;;;;41.83;23.60;;;;;;;;;;5049636;28;20435;-84
2022/12/09 03:57:15;;;;;;;35.17;21.73;;;;;;;;;;5049774;28;20506;-84
2022/12/09 03:59:43;;;;;;;35.63;22.27;;;;;;;;;;5048988;28;20435;-84
2022/12/09 04:02:11;;;;;;;37.53;21.80;;;;;;;;;;5045036;28;20425;-84
2022/12/09 04:04:39;;;;;;;40.63;23.02;;;;;;;;;;5050253;28;20412;-84
2022/12/09 04:07:06;;;;;;;35.90;22.20;;;;;;;;;;5049712;28;20427;-84
2022/12/09 04:09:32;;;;;;;35.10;21.10;;;;;;;;;;5045842;28;20435;-84
2022/12/09 04:11:58;;;;;;;34.83;21.73;;;;;;;;;;5046793;28;20429;-84
2022/12/09 04:14:25;;;;;;;36.97;21.90;;;;;;;;;;5044634;28;20438;-84
2022/12/09 04:16:51;;;;;;;35.42;21.38;;;;;;;;;;5050939;28;20414;-84
2022/12/09 04:19:19;;;;;;;32.58;19.60;;;;;;;;;;5048873;28;20922;-84
2022/12/09 04:21:45;;;;;;;35.70;21.60;;;;;;;;;;5051466;28;20449;-84
2022/12/09 04:24:11;;;;;;;37.25;22.05;;;;;;;;;;5052441;28;20402;-84
2022/12/09 04:26:38;;;;;;;37.15;22.05;;;;;;;;;;5048556;28;20433;-84
2022/12/09 04:29:04;;;;;;;36.67;21.87;;;;;;;;;;5050926;28;20419;-84
2022/12/09 04:31:31;;;;;;;35.38;21.17;;;;;;;;;;5051410;28;20415;-84
2022/12/09 04:33:57;;;;;;;32.83;20.75;;;;;;;;;;5049970;28;20417;-84
2022/12/09 04:36:25;;;;;;;38.03;22.33;;;;;;;;;;5048409;28;20442;-84
2022/12/09 04:38:51;;;;;;;34.35;20.02;;;;;;;;;;5045372;28;20419;-84
2022/12/09 04:41:18;;;;;;;32.47;19.73;;;;;;;;;;5052282;28;20418;-84
2022/12/09 04:43:44;;;;;;;30.23;18.80;;;;;;;;;;5049488;28;20417;-84
2022/12/09 04:46:11;;;;;;;30.60;18.88;;;;;;;;;;5049089;28;20411;-84
2022/12/09 04:48:38;;;;;;;30.40;19.30;;;;;;;;;;5045749;28;20957;-84
2022/12/09 04:51:04;;;;;;;30.83;18.58;;;;;;;;;;5047742;28;20439;-84
2022/12/09 04:53:32;;;;;;;28.55;17.98;;;;;;;;;;5046251;28;20511;-84
2022/12/09 04:55:59;;;;;;;31.80;18.60;;;;;;;;;;5048811;28;20415;-84
2022/12/09 04:58:26;;;;;;;25.88;16.98;;;;;;;;;;5047097;28;20919;-84
2022/12/09 05:00:52;;;;;;;25.88;16.48;;;;;;;;;;5047010;28;20466;-84
2022/12/09 05:03:18;;;;;;;26.70;15.80;;;;;;;;;;5048074;28;20495;-84
2022/12/09 05:05:45;;;;;;;22.65;15.05;;;;;;;;;;5049165;28;20439;-84
2022/12/09 05:08:11;;;;;;;23.85;15.20;;;;;;;;;;5046760;28;20426;-84
2022/12/09 05:10:39;;;;;;;23.00;14.43;;;;;;;;;;5052320;28;20415;-84
2022/12/09 05:13:05;;;;;;;22.00;14.67;;;;;;;;;;5046408;28;20423;-84
2022/12/09 05:15:31;;;;;;;24.13;15.10;;;;;;;;;;5052230;28;20791;-84
2022/12/09 05:17:58;;;;;;;24.10;15.20;;;;;;;;;;5046662;28;20409;-84
2022/12/09 05:20:28;;;;;;;21.45;14.02;;;;;;;;;;5050158;28;20431;-84
2022/12/09 05:22:54;;;;;;;24.50;13.90;;;;;;;;;;5046807;28;20423;-84
2022/12/09 05:25:20;;;;;;;23.20;14.02;;;;;;;;;;5045619;28;20435;-84
2022/12/09 05:27:48;;;;;;;24.33;14.60;;;;;;;;;;5044177;28;20427;-84
2022/12/09 05:30:15;;;;;;;23.27;14.88;;;;;;;;;;5041498;28;20428;-85
2022/12/09 05:32:41;;;;;;;26.02;15.00;;;;;;;;;;5043471;28;21121;-84
2022/12/09 05:35:08;;;;;;;23.90;14.90;;;;;;;;;;5054167;28;20421;-84
2022/12/09 05:37:35;;;;;;;22.17;14.50;;;;;;;;;;5048707;28;20813;-84
2022/12/09 05:40:01;;;;;;;23.17;13.68;;;;;;;;;;5048751;28;20437;-84
2022/12/09 05:42:27;;;;;;;25.83;15.80;;;;;;;;;;5048409;28;20415;-84
2022/12/09 05:44:55;;;;;;;28.88;17.15;;;;;;;;;;5048133;28;20425;-84
2022/12/09 05:47:22;;;;;;;26.40;16.20;;;;;;;;;;5046236;28;20409;-84
2022/12/09 05:49:48;;;;;;;33.35;19.00;;;;;;;;;;5047796;28;20429;-84
2022/12/09 05:52:15;;;;;;;30.30;19.48;;;;;;;;;;5043422;28;20432;-84
2022/12/09 05:54:41;;;;;;;32.30;19.70;;;;;;;;;;5044369;28;20442;-84
2022/12/09 05:57:07;;;;;;;33.15;21.55;;;;;;;;;;5048303;28;20924;-84
2022/12/09 05:59:34;;;;;;;33.88;19.88;;;;;;;;;;5051374;28;20420;-84
2022/12/09 06:02:02;;;;;;;40.10;20.30;;;;;;;;;;5051583;28;20986;-84
2022/12/09 06:04:28;;;;;;;35.42;20.33;;;;;;;;;;5048011;28;20421;-84
2022/12/09 06:06:54;;;;;;;39.17;22.73;;;;;;;;;;5052161;28;20934;-84
2022/12/09 06:09:21;;;;;;;33.90;20.55;;;;;;;;;;5049661;28;20415;-83
2022/12/09 06:11:47;;;;;;;33.83;21.25;;;;;;;;;;5044136;28;20464;-84
2022/12/09 06:14:13;;;;;;;33.33;21.02;;;;;;;;;;5048346;28;20812;-83
2022/12/09 06:16:40;;;;;;;34.72;21.98;;;;;;;;;;5050657;28;20437;-83
2022/12/09 06:19:09;;;;;;;34.70;21.40;;;;;;;;;;5055872;28;20418;-84
2022/12/09 06:21:38;;;;;;;43.67;24.80;;;;;;;;;;5049390;28;20940;-84
2022/12/09 06:24:05;;;;;;;38.30;23.42;;;;;;;;;;5051940;28;20422;-83
2022/12/09 06:26:31;;;;;;;40.42;22.70;;;;;;;;;;5046220;28;20485;-84
2022/12/09 06:28:58;;;;;;;31.85;21.90;;;;;;;;;;5048978;28;20417;-83
2022/12/09 06:31:25;;;;;;;37.55;22.35;;;;;;;;;;5047710;28;20430;-83
2022/12/09 06:33:51;;;;;;;41.83;22.63;;;;;;;;;;5049159;28;20424;-84
2022/12/09 06:36:19;;;;;;;41.45;23.70;;;;;;;;;;5048225;28;20435;-84
2022/12/09 06:38:46;;;;;;;39.80;23.70;;;;;;;;;;5052944;28;20419;-84
2022/12/09 06:41:13;;;;;;;43.55;25.23;;;;;;;;;;5046512;28;20429;-84
2022/12/09 06:43:39;;;;;;;38.17;24.05;;;;;;;;;;5047176;28;20437;-84
2022/12/09 06:46:10;;;;;;;38.47;23.75;;;;;;;;;;5044837;28;20436;-84
2022/12/09 06:48:37;;;;;;;37.83;23.67;;;;;;;;;;5051725;28;20413;-84
2022/12/09 06:51:03;;;;;;;44.65;25.00;;;;;;;;;;5050697;28;20431;-83
2022/12/09 06:53:31;;;;;;;42.58;25.73;;;;;;;;;;5052152;28;20422;-83
2022/12/09 06:56:00;;;;;;;39.45;23.05;;;;;;;;;;5047622;28;20431;-83
2022/12/09 06:58:27;;;;;;;38.95;23.27;;;;;;;;;;5056720;28;20425;-84
2022/12/09 07:00:53;;;;;;;39.38;23.13;;;;;;;;;;5071315;28;20488;-84
2022/12/09 07:03:19;;;;;;;42.87;23.90;;;;;;;;;;5071313;28;20502;-84
2022/12/09 07:05:46;;;;;;;43.60;25.20;;;;;;;;;;5067127;28;20424;-84
2022/12/09 07:08:12;;;;;;;42.80;24.58;;;;;;;;;;5073639;28;20414;-83
2022/12/09 07:10:40;;;;;;;41.90;24.63;;;;;;;;;;5071510;28;20425;-83
2022/12/09 07:13:06;;;;;;;45.38;24.20;;;;;;;;;;5069834;28;20444;-86
2022/12/09 07:15:33;;;;;;;35.73;21.90;;;;;;;;;;5068029;28;20433;-84
2022/12/09 07:18:00;;;;;;;39.70;22.23;;;;;;;;;;5069369;28;20420;-83
2022/12/09 07:20:26;;;;;;;39.35;23.65;;;;;;;;;;5063037;28;20455;-84
2022/12/09 07:22:52;;;;;;;41.50;24.52;;;;;;;;;;5066055;28;20416;-84
2022/12/09 07:25:18;;;;;;;41.05;22.75;;;;;;;;;;5066530;28;20442;-84
2022/12/09 07:27:46;;;;;;;39.47;23.77;;;;;;;;;;5068835;28;20789;-85
2022/12/09 07:30:13;;;;;;;39.97;23.17;;;;;;;;;;5071987;28;20420;-83
2022/12/09 07:32:39;;;;;;;41.00;23.80;;;;;;;;;;5068531;28;20413;-84
2022/12/09 07:35:06;;;;;;;38.15;22.02;;;;;;;;;;5065822;28;21080;-83
2022/12/09 07:37:34;;;;;;;41.08;23.25;;;;;;;;;;5072847;28;20413;-84
2022/12/09 07:40:00;;;;;;;41.15;25.05;;;;;;;;;;5070765;28;20433;-84
2022/12/09 07:42:26;;;;;;;46.03;25.00;;;;;;;;;;5069990;28;20408;-83
2022/12/09 07:44:54;;;;;;;36.45;22.85;;;;;;;;;;5072194;28;20428;-84
2022/12/09 07:47:21;;;;;;;44.42;25.17;;;;;;;;;;5069768;28;20400;-85
2022/12/09 07:49:48;;;;;;;41.05;23.95;;;;;;;;;;5065878;28;20429;-85
2022/12/09 07:52:14;;;;;;;41.47;23.65;;;;;;;;;;5064427;28;20421;-84
2022/12/09 07:54:41;;;;;;;42.33;24.73;;;;;;;;;;5071656;28;20423;-84
2022/12/09 07:57:07;;;;;;;46.30;24.10;;;;;;;;;;5070412;28;20435;-82
2022/12/09 07:59:33;;;;;;;39.37;24.00;;;;;;;;;;5065725;28;20437;-84
2022/12/09 08:02:02;;;;;;;44.55;24.15;;;;;;;;;;5071393;28;20449;-84
2022/12/09 08:04:29;;;;;;;46.42;26.42;;;;;;;;;;5068531;28;20421;-85
2022/12/09 08:06:55;;;;;;;48.22;26.40;;;;;;;;;;5067949;28;20441;-84
2022/12/09 08:09:21;;;;;;;44.83;26.52;;;;;;;;;;5068793;28;20430;-83
2022/12/09 08:11:48;;;;;;;48.72;27.20;;;;;;;;;;5071251;28;20417;-84
2022/12/09 08:14:14;;;;;;;51.13;27.73;;;;;;;;;;5063028;28;20422;-84
2022/12/09 08:16:41;;;;;;;51.15;29.15;;;;;;;;;;5065730;28;20776;-84
2022/12/09 08:19:10;;;;;;;52.55;27.15;;;;;;;;;;5071640;28;20427;-83
2022/12/09 08:21:36;;;;;;;100.88;31.92;;;;;;;;;;5066173;28;20481;-83
2022/12/09 08:24:04;;;;;;;86.97;32.20;;;;;;;;;;5074776;28;20777;-83
2022/12/09 08:26:31;;;;;;;70.63;29.05;;;;;;;;;;5068088;28;20431;-83
2022/12/09 08:28:57;;;;;;;81.30;29.47;;;;;;;;;;5068738;28;20426;-84
2022/12/09 08:31:25;;;;;;;67.17;29.10;;;;;;;;;;5069175;28;20427;-84
2022/12/09 08:33:52;;;;;;;172.07;40.42;;;;;;;;;;5073924;28;20419;-84
2022/12/09 08:36:21;;;;;;;83.75;32.25;;;;;;;;;;5069561;28;20425;-84
2022/12/09 08:38:47;;;;;;;151.02;41.13;;;;;;;;;;5070347;28;20418;-84
2022/12/09 08:41:14;;;;;;;108.45;35.67;;;;;;;;;;5072576;28;20424;-83
2022/12/09 08:43:41;;;;;;;83.57;30.67;;;;;;;;;;5066658;28;20420;-84
2022/12/09 08:46:08;;;;;;;87.60;31.95;;;;;;;;;;5069764;28;20417;-84
2022/12/09 08:48:35;;;;;;;101.57;32.60;;;;;;;;;;5068459;28;20415;-84
2022/12/09 08:51:01;;;;;;;97.20;33.87;;;;;;;;;;5071434;28;20803;-84
2022/12/09 08:53:29;;;;;;;82.93;31.45;;;;;;;;;;5050118;28;20414;-84
2022/12/09 08:55:56;;;;;;;107.83;34.10;;;;;;;;;;5070631;28;20425;-84
2022/12/09 08:58:22;;;;;;;82.38;31.33;;;;;;;;;;5068960;28;20428;-84
2022/12/09 09:00:48;;;;;;;127.57;33.83;;;;;;;;;;5069221;28;20427;-84
2022/12/09 09:03:15;;;;;;;142.68;31.40;;;;;;;;;;5064458;28;20418;-83
2022/12/09 09:05:41;;;;;;;95.73;29.83;;;;;;;;;;5073372;28;20423;-83
2022/12/09 09:08:07;;;;;;;133.90;34.80;;;;;;;;;;5074457;28;20422;-83
2022/12/09 09:10:36;;;;;;;82.15;30.50;;;;;;;;;;5067244;28;20827;-84
2022/12/09 09:13:02;;;;;;;100.80;33.00;;;;;;;;;;5071430;28;20421;-85
2022/12/09 09:15:29;;;;;;;127.50;34.88;;;;;;;;;;5072887;28;20441;-83
2022/12/09 09:17:55;;;;;;;118.90;33.13;;;;;;;;;;5072087;28;21161;-84
2022/12/09 09:20:21;;;;;;;81.43;31.75;;;;;;;;;;5069993;28;20419;-85
2022/12/09 09:22:48;;;;;;;103.53;32.92;;;;;;;;;;5063126;28;20432;-84
2022/12/09 09:25:14;;;;;;;143.40;38.00;;;;;;;;;;5062602;28;20433;-84
2022/12/09 09:27:42;;;;;;;102.15;31.90;;;;;;;;;;5069776;28;20787;-83
2022/12/09 09:30:09;;;;;;;99.30;33.42;;;;;;;;;;5063143;28;20405;-84
2022/12/09 09:32:35;;;;;;;100.15;31.60;;;;;;;;;;5066576;28;20949;-83
2022/12/09 09:35:01;;;;;;;136.23;35.42;;;;;;;;;;5066471;28;20432;-85
2022/12/09 09:37:28;;;;;;;69.85;29.48;;;;;;;;;;5068704;28;20413;-85
2022/12/09 09:39:54;;;;;;;82.88;30.83;;;;;;;;;;5067882;28;20421;-84
2022/12/09 09:42:23;;;;;;;114.85;33.25;;;;;;;;;;5072433;28;20411;-84
2022/12/09 09:44:53;;;;;;;70.68;28.88;;;;;;;;;;5067927;28;20419;-84
2022/12/09 09:47:25;;;;;;;135.95;34.20;;;;;;;;;;5071500;28;20929;-87
2022/12/09 09:49:53;;;;;;;84.50;30.88;;;;;;;;;;5070801;28;20419;-85
2022/12/09 09:52:20;;;;;;;74.07;29.92;;;;;;;;;;5070902;28;20405;-85
2022/12/09 09:54:46;;;;;;;110.60;32.10;;;;;;;;;;5068067;28;20416;-85
2022/12/09 09:57:14;;;;;;;115.30;33.53;;;;;;;;;;5069000;28;20432;-84
2022/12/09 09:59:47;;;;;;;142.93;35.08;;;;;;;;;;5068548;28;20427;-82
2022/12/09 10:02:18;;;;;;;113.50;29.87;;;;;;;;;;5065715;28;21083;-82
2022/12/09 10:04:49;;;;;;;96.90;31.52;;;;;;;;;;5072499;28;20429;-82
2022/12/09 10:07:18;;;;;;;97.82;32.15;;;;;;;;;;5068788;28;20427;-82
2022/12/09 10:09:46;;;;;;;158.45;39.90;;;;;;;;;;5066642;28;20423;-82
2022/12/09 10:12:17;;;;;;;127.75;34.45;;;;;;;;;;5074039;28;20429;-83
2022/12/09 10:14:48;;;;;;;151.82;35.95;;;;;;;;;;5072135;28;20421;-82
2022/12/09 10:17:21;;;;;;;92.80;47.17;;;;;;;;;;5071093;28;20417;-83
2022/12/09 10:19:49;;;;;;;209.60;41.55;;;;;;;;;;5063002;28;20509;-84
2022/12/09 10:22:20;;;;;;;125.90;35.13;;;;;;;;;;5065620;28;20875;-83
2022/12/09 10:24:48;;;;;;;160.32;39.70;;;;;;;;;;5070722;28;20429;-83
2022/12/09 10:27:18;;;;;;;113.60;36.00;;;;;;;;;;5070916;28;20801;-83
2022/12/09 10:29:51;;;;;;;196.00;42.83;;;;;;;;;;5068880;28;20451;-83
2022/12/09 10:32:20;;;;;;;164.32;39.17;;;;;;;;;;5071409;28;20419;-82
2022/12/09 10:34:47;;;;;;;192.50;41.85;;;;;;;;;;5069064;28;20853;-82
2022/12/09 10:37:22;;;;;;;153.68;36.83;;;;;;;;;;5072954;28;20431;-82
2022/12/09 10:39:49;;;;;;;149.48;37.40;;;;;;;;;;5062556;28;20429;-84
2022/12/09 10:45:04;;;;;;;107.70;37.35;;;;;;;;;;5065920;28;20425;-83
2022/12/09 10:47:32;;;;;;;187.07;41.30;;;;;;;;;;5065334;28;20415;-82
2022/12/09 10:49:59;;;;;;;135.77;39.30;;;;;;;;;;5064870;28;20421;-83
2022/12/09 10:52:28;;;;;;;156.75;38.60;;;;;;;;;;5068031;28;20405;-83
2022/12/09 10:54:54;;;;;;;187.30;42.03;;;;;;;;;;5064484;28;20419;-82
2022/12/09 10:57:25;;;;;;;257.48;46.08;;;;;;;;;;5066680;28;20429;-81
2022/12/09 10:59:59;;;;;;;153.25;38.20;;;;;;;;;;5063483;28;20434;-82
2022/12/09 11:02:25;;;;;;;268.08;48.15;;;;;;;;;;5067774;28;20525;-83
2022/12/09 11:04:53;;;;;;;179.52;42.00;;;;;;;;;;5069471;28;20427;-83
2022/12/09 11:07:21;;;;;;;128.98;40.20;;;;;;;;;;5069858;28;20423;-83
2022/12/09 11:09:48;;;;;;;121.63;38.50;;;;;;;;;;5068655;28;20413;-83
2022/12/09 11:12:17;;;;;;;121.65;36.92;;;;;;;;;;5065145;28;20440;-83
2022/12/09 11:14:49;;;;;;;165.65;39.65;;;;;;;;;;5065832;28;20487;-83
2022/12/09 11:17:17;;;;;;;144.80;37.58;;;;;;;;;;5056622;28;20431;-83
2022/12/09 11:19:45;;;;;;;134.15;40.22;;;;;;;;;;5065057;28;20429;-82
2022/12/09 11:22:21;;;;;;;152.10;40.55;;;;;;;;;;5068018;28;20464;-83
2022/12/09 11:24:48;;;;;;;127.25;38.17;;;;;;;;;;5069335;28;20425;-84
2022/12/09 11:27:28;;;;;;;218.40;42.92;;;;;;;;;;5068021;28;20417;-84
2022/12/09 11:30:12;;;;;;;158.38;40.17;;;;;;;;;;5064531;28;20953;-83
2022/12/09 11:32:51;;;;;;;94.38;34.13;;;;;;;;;;5063350;28;20447;-82
2022/12/09 11:35:17;;;;;;;121.05;36.55;;;;;;;;;;5068438;28;20430;-84
2022/12/09 11:37:45;;;;;;;84.35;35.85;;;;;;;;;;5068588;28;20425;-83
2022/12/09 11:40:15;;;;;;;127.13;36.67;;;;;;;;;;5069612;28;20897;-84
2022/12/09 11:42:41;;;;;;;127.78;37.08;;;;;;;;;;5068593;28;20426;-83
2022/12/09 11:45:17;;;;;;;142.33;40.87;;;;;;;;;;5066949;28;20414;-82
2022/12/09 11:47:45;;;;;;;103.47;32.92;;;;;;;;;;5068219;28;20768;-82
2022/12/09 11:50:13;;;;;;;95.07;33.10;;;;;;;;;;5065942;28;20486;-82
2022/12/09 11:52:40;;;;;;;89.65;34.72;;;;;;;;;;5065539;28;20425;-82
2022/12/09 11:55:16;;;;;;;100.40;36.00;;;;;;;;;;5065074;28;20440;-83
2022/12/09 11:57:47;;;;;;;82.03;32.92;;;;;;;;;;5064563;28;20437;-82
2022/12/09 12:00:17;;;;;;;84.60;34.20;;;;;;;;;;5059315;28;20436;-83
2022/12/09 12:02:47;;;;;;;83.03;33.67;;;;;;;;;;5068172;28;20429;-83
2022/12/09 12:05:19;;;;;;;80.25;32.22;;;;;;;;;;5062134;28;20825;-82
2022/12/09 12:07:48;;;;;;;75.33;33.30;;;;;;;;;;5067975;28;20463;-83
2022/12/09 12:10:19;;;;;;;77.43;34.20;;;;;;;;;;5071347;28;20923;-83
2022/12/09 12:12:48;;;;;;;77.43;32.47;;;;;;;;;;5061450;28;20945;-83
2022/12/09 12:15:17;;;;;;;81.13;34.20;;;;;;;;;;5066159;28;21057;-83
2022/12/09 12:17:48;;;;;;;72.82;35.15;;;;;;;;;;5063968;28;20407;-83
2022/12/09 12:20:14;;;;;;;74.43;32.80;;;;;;;;;;5064150;28;20427;-83
2022/12/09 12:22:54;;;;;;;74.85;32.90;;;;;;;;;;5063996;28;20440;-83
2022/12/09 12:25:28;;;;;;;70.70;33.47;;;;;;;;;;5066781;28;20421;-83
2022/12/09 12:28:12;;;;;;;67.68;31.45;;;;;;;;;;5065631;28;20914;-83
2022/12/09 12:30:41;;;;;;;74.63;32.47;;;;;;;;;;5063323;28;20435;-83
2022/12/09 12:33:21;;;;;;;74.18;34.40;;;;;;;;;;5069506;28;20407;-83
2022/12/09 12:35:56;;;;;;;71.25;31.83;;;;;;;;;;5065254;28;20429;-83
2022/12/09 12:38:25;;;;;;;77.28;34.10;;;;;;;;;;5067164;28;20421;-83
2022/12/09 12:40:58;;;;;;;83.40;35.10;;;;;;;;;;5065843;28;20432;-84
2022/12/09 12:46:25;;;;;;;73.65;34.33;;;;;;;;;;5064808;28;20416;-84
2022/12/09 12:48:58;;;;;;;78.63;35.75;;;;;;;;;;5066079;28;20479;-83
2022/12/09 12:51:32;;;;;;;78.47;35.03;;;;;;;;;;5062293;28;20429;-83
2022/12/09 12:54:02;;;;;;;78.25;34.35;;;;;;;;;;5061758;28;20421;-83
2022/12/09 12:56:32;;;;;;;70.85;33.67;;;;;;;;;;5063829;28;20424;-83
2022/12/09 12:59:03;;;;;;;76.18;34.15;;;;;;;;;;5063420;28;20437;-83
2022/12/09 13:01:32;;;;;;;78.15;33.67;;;;;;;;;;5065731;28;20427;-83
2022/12/09 13:04:03;;;;;;;77.53;36.20;;;;;;;;;;5060317;28;20432;-83
2022/12/09 13:06:34;;;;;;;75.68;33.03;;;;;;;;;;5068990;28;20939;-83
2022/12/09 13:09:03;;;;;;;70.90;31.45;;;;;;;;;;5067418;28;20490;-83
2022/12/09 13:11:45;;;;;;;73.50;33.22;;;;;;;;;;5071609;28;20805;-83
2022/12/09 13:14:13;;;;;;;75.07;33.50;;;;;;;;;;5067401;28;20514;-83
2022/12/09 13:16:41;;;;;;;75.75;34.90;;;;;;;;;;5063697;28;20437;-83
2022/12/09 13:19:09;;;;;;;85.68;36.50;;;;;;;;;;5066262;28;20431;-83
2022/12/09 13:21:35;;;;;;;79.05;35.30;;;;;;;;;;5069973;28;20415;-83
2022/12/09 13:24:07;;;;;;;80.95;36.20;;;;;;;;;;5062165;28;20421;-83
2022/12/09 13:26:40;;;;;;;80.22;36.10;;;;;;;;;;5068111;28;20441;-83
2022/12/09 13:29:13;;;;;;;76.03;35.85;;;;;;;;;;5059432;28;20493;-83
2022/12/09 13:31:44;;;;;;;79.38;35.40;;;;;;;;;;5066474;28;20415;-83
2022/12/09 13:34:18;;;;;;;76.13;35.78;;;;;;;;;;5062733;28;20417;-83
2022/12/09 13:36:45;;;;;;;77.82;36.80;;;;;;;;;;5071971;28;20433;-83
2022/12/09 13:39:12;;;;;;;78.50;36.53;;;;;;;;;;5066397;28;20419;-83
2022/12/09 13:44:33;;;;;;;76.75;37.17;;;;;;;;;;5060564;28;20465;-83
2022/12/09 13:47:13;;;;;;;79.78;37.60;;;;;;;;;;5066829;28;20430;-83
2022/12/09 13:49:39;;;;;;;71.68;35.47;;;;;;;;;;5061396;28;20815;-83
2022/12/09 13:52:06;;;;;;;76.53;36.20;;;;;;;;;;5069007;28;20432;-83
2022/12/09 13:54:33;;;;;;;73.07;35.65;;;;;;;;;;5068963;28;20413;-83
2022/12/09 13:57:08;;;;;;;81.20;37.85;;;;;;;;;;5073534;28;20489;-83
2022/12/09 13:59:38;;;;;;;80.75;37.88;;;;;;;;;;5070037;28;20422;-84
2022/12/09 14:02:12;;;;;;;81.10;38.00;;;;;;;;;;5068953;28;20858;-84
2022/12/09 14:04:44;;;;;;;81.95;37.80;;;;;;;;;;5071015;28;20437;-83
2022/12/09 14:07:18;;;;;;;78.97;37.72;;;;;;;;;;5069628;28;20414;-83
2022/12/09 14:09:47;;;;;;;76.85;37.67;;;;;;;;;;5073327;28;20416;-83
2022/12/09 14:12:36;;;;;;;78.63;39.88;;;;;;;;;;5072530;28;20412;-83
2022/12/09 14:15:27;;;;;;;83.20;38.67;;;;;;;;;;5070519;28;20436;-83
2022/12/09 14:18:01;;;;;;;85.38;39.90;;;;;;;;;;5068013;28;20437;-83
2022/12/09 14:20:29;;;;;;;78.88;37.72;;;;;;;;;;5050671;28;20457;-84
2022/12/09 14:23:15;;;;;;;85.82;40.60;;;;;;;;;;5048225;28;20416;-83
2022/12/09 14:25:55;;;;;;;87.47;40.33;;;;;;;;;;5044531;28;20420;-83
2022/12/09 14:28:36;;;;;;;85.47;40.83;;;;;;;;;;5052821;28;20414;-83